sensor_id;sensor_type;location;lat;lon;timestamp;P1;durP1;ratioP1;P2;durP2;ratioP2
51636;SDS011;37713;53.254;6.460;2024-02-21T00:01:07;23.98;;;4.88;;
51636;SDS011;37713;53.254;6.460;2024-02-21T00:03:33;20.77;;;4.15;;
51636;SDS011;37713;53.254;6.460;2024-02-21T00:05:59;19.85;;;3.65;;
51636;SDS011;37713;53.254;6.460;2024-02-21T00:08:24;15.82;;;3.50;;
51636;SDS011;37713;53.254;6.460;2024-02-21T00:10:50;18.45;;;3.53;;
51636;SDS011;37713;53.254;6.460;2024-02-21T00:13:16;24.23;;;4.50;;
51636;SDS011;37713;53.254;6.460;2024-02-21T00:15:42;22.38;;;3.75;;
51636;SDS011;37713;53.254;6.460;2024-02-21T00:18:08;20.10;;;4.13;;
51636;SDS011;37713;53.254;6.460;2024-02-21T00:20:36;18.13;;;3.65;;
51636;SDS011;37713;53.254;6.460;2024-02-21T00:23:02;20.38;;;4.10;;
51636;SDS011;37713;53.254;6.460;2024-02-21T00:25:28;18.60;;;4.15;;
51636;SDS011;37713;53.254;6.460;2024-02-21T00:27:54;23.23;;;4.43;;
51636;SDS011;37713;53.254;6.460;2024-02-21T00:30:20;19.35;;;3.70;;
51636;SDS011;37713;53.254;6.460;2024-02-21T00:32:46;22.98;;;3.65;;
51636;SDS011;37713;53.254;6.460;2024-02-21T00:35:12;22.48;;;4.28;;
51636;SDS011;37713;53.254;6.460;2024-02-21T00:37:38;22.60;;;3.78;;
51636;SDS011;37713;53.254;6.460;2024-02-21T00:40:04;24.75;;;4.00;;
51636;SDS011;37713;53.254;6.460;2024-02-21T00:42:30;23.75;;;4.50;;
51636;SDS011;37713;53.254;6.460;2024-02-21T00:44:56;19.23;;;4.18;;
51636;SDS011;37713;53.254;6.460;2024-02-21T00:47:22;19.40;;;4.00;;
51636;SDS011;37713;53.254;6.460;2024-02-21T00:49:48;26.05;;;4.63;;
51636;SDS011;37713;53.254;6.460;2024-02-21T00:52:14;22.17;;;3.97;;
51636;SDS011;37713;53.254;6.460;2024-02-21T00:54:39;21.95;;;4.80;;
51636;SDS011;37713;53.254;6.460;2024-02-21T00:57:05;22.13;;;4.95;;
51636;SDS011;37713;53.254;6.460;2024-02-21T00:59:31;25.52;;;5.57;;
51636;SDS011;37713;53.254;6.460;2024-02-21T01:01:57;20.38;;;4.85;;
51636;SDS011;37713;53.254;6.460;2024-02-21T01:04:24;22.15;;;4.82;;
51636;SDS011;37713;53.254;6.460;2024-02-21T01:06:50;23.73;;;5.00;;
51636;SDS011;37713;53.254;6.460;2024-02-21T01:09:16;23.90;;;5.18;;
51636;SDS011;37713;53.254;6.460;2024-02-21T01:11:41;20.70;;;5.30;;
51636;SDS011;37713;53.254;6.460;2024-02-21T01:14:07;23.63;;;5.22;;
51636;SDS011;37713;53.254;6.460;2024-02-21T01:16:33;21.92;;;5.07;;
51636;SDS011;37713;53.254;6.460;2024-02-21T01:18:59;26.33;;;5.13;;
51636;SDS011;37713;53.254;6.460;2024-02-21T01:21:25;24.55;;;5.60;;
51636;SDS011;37713;53.254;6.460;2024-02-21T01:23:50;21.55;;;5.93;;
51636;SDS011;37713;53.254;6.460;2024-02-21T01:26:16;22.58;;;5.40;;
51636;SDS011;37713;53.254;6.460;2024-02-21T01:28:43;22.30;;;4.90;;
51636;SDS011;37713;53.254;6.460;2024-02-21T01:31:09;21.30;;;5.22;;
51636;SDS011;37713;53.254;6.460;2024-02-21T01:33:35;23.15;;;5.43;;
51636;SDS011;37713;53.254;6.460;2024-02-21T01:36:02;28.35;;;5.47;;
51636;SDS011;37713;53.254;6.460;2024-02-21T01:38:28;17.65;;;5.03;;
51636;SDS011;37713;53.254;6.460;2024-02-21T01:40:54;19.85;;;4.93;;
51636;SDS011;37713;53.254;6.460;2024-02-21T01:43:20;19.45;;;4.72;;
51636;SDS011;37713;53.254;6.460;2024-02-21T01:45:47;19.83;;;4.43;;
51636;SDS011;37713;53.254;6.460;2024-02-21T01:48:18;19.52;;;4.40;;
51636;SDS011;37713;53.254;6.460;2024-02-21T01:50:44;16.88;;;4.30;;
51636;SDS011;37713;53.254;6.460;2024-02-21T01:53:21;13.50;;;4.47;;
51636;SDS011;37713;53.254;6.460;2024-02-21T01:55:55;12.98;;;4.15;;
51636;SDS011;37713;53.254;6.460;2024-02-21T01:58:21;14.75;;;4.43;;
51636;SDS011;37713;53.254;6.460;2024-02-21T02:00:49;14.82;;;4.07;;
51636;SDS011;37713;53.254;6.460;2024-02-21T02:03:16;21.23;;;5.20;;
51636;SDS011;37713;53.254;6.460;2024-02-21T02:05:45;18.65;;;4.97;;
51636;SDS011;37713;53.254;6.460;2024-02-21T02:08:16;18.63;;;5.07;;
51636;SDS011;37713;53.254;6.460;2024-02-21T02:10:42;18.52;;;5.28;;
51636;SDS011;37713;53.254;6.460;2024-02-21T02:13:09;17.20;;;5.18;;
51636;SDS011;37713;53.254;6.460;2024-02-21T02:15:41;17.40;;;5.28;;
51636;SDS011;37713;53.254;6.460;2024-02-21T02:18:11;19.73;;;5.78;;
51636;SDS011;37713;53.254;6.460;2024-02-21T02:20:38;18.52;;;5.60;;
51636;SDS011;37713;53.254;6.460;2024-02-21T02:23:10;17.50;;;5.63;;
51636;SDS011;37713;53.254;6.460;2024-02-21T02:25:37;18.38;;;6.10;;
51636;SDS011;37713;53.254;6.460;2024-02-21T02:28:05;23.35;;;6.50;;
51636;SDS011;37713;53.254;6.460;2024-02-21T02:30:32;24.00;;;6.20;;
51636;SDS011;37713;53.254;6.460;2024-02-21T02:32:59;19.00;;;6.68;;
51636;SDS011;37713;53.254;6.460;2024-02-21T02:35:25;21.08;;;6.50;;
51636;SDS011;37713;53.254;6.460;2024-02-21T02:37:51;23.27;;;5.90;;
51636;SDS011;37713;53.254;6.460;2024-02-21T02:40:17;25.83;;;7.05;;
51636;SDS011;37713;53.254;6.460;2024-02-21T02:42:43;29.55;;;6.75;;
51636;SDS011;37713;53.254;6.460;2024-02-21T02:45:09;22.55;;;5.95;;
51636;SDS011;37713;53.254;6.460;2024-02-21T02:47:35;22.92;;;6.25;;
51636;SDS011;37713;53.254;6.460;2024-02-21T02:50:01;28.90;;;7.43;;
51636;SDS011;37713;53.254;6.460;2024-02-21T02:52:27;25.73;;;6.22;;
51636;SDS011;37713;53.254;6.460;2024-02-21T02:54:52;26.35;;;6.35;;
51636;SDS011;37713;53.254;6.460;2024-02-21T02:57:20;26.05;;;6.07;;
51636;SDS011;37713;53.254;6.460;2024-02-21T02:59:50;25.05;;;6.32;;
51636;SDS011;37713;53.254;6.460;2024-02-21T03:02:16;35.25;;;6.57;;
51636;SDS011;37713;53.254;6.460;2024-02-21T03:04:42;28.58;;;6.35;;
51636;SDS011;37713;53.254;6.460;2024-02-21T03:07:08;31.35;;;6.70;;
51636;SDS011;37713;53.254;6.460;2024-02-21T03:09:36;28.20;;;6.70;;
51636;SDS011;37713;53.254;6.460;2024-02-21T03:12:03;23.80;;;6.35;;
51636;SDS011;37713;53.254;6.460;2024-02-21T03:14:30;32.33;;;7.78;;
51636;SDS011;37713;53.254;6.460;2024-02-21T03:16:56;29.77;;;6.45;;
51636;SDS011;37713;53.254;6.460;2024-02-21T03:19:23;34.63;;;7.55;;
51636;SDS011;37713;53.254;6.460;2024-02-21T03:21:49;35.45;;;6.68;;
51636;SDS011;37713;53.254;6.460;2024-02-21T03:24:16;30.08;;;7.22;;
51636;SDS011;37713;53.254;6.460;2024-02-21T03:26:42;32.20;;;6.45;;
51636;SDS011;37713;53.254;6.460;2024-02-21T03:29:08;27.98;;;6.30;;
51636;SDS011;37713;53.254;6.460;2024-02-21T03:31:35;38.05;;;6.03;;
51636;SDS011;37713;53.254;6.460;2024-02-21T03:34:00;35.85;;;6.95;;
51636;SDS011;37713;53.254;6.460;2024-02-21T03:36:26;32.55;;;6.05;;
51636;SDS011;37713;53.254;6.460;2024-02-21T03:38:52;30.35;;;6.22;;
51636;SDS011;37713;53.254;6.460;2024-02-21T03:41:19;34.60;;;6.25;;
51636;SDS011;37713;53.254;6.460;2024-02-21T03:43:45;36.08;;;7.18;;
51636;SDS011;37713;53.254;6.460;2024-02-21T03:46:11;33.63;;;7.35;;
51636;SDS011;37713;53.254;6.460;2024-02-21T03:48:36;34.40;;;6.70;;
51636;SDS011;37713;53.254;6.460;2024-02-21T03:51:02;26.33;;;6.05;;
51636;SDS011;37713;53.254;6.460;2024-02-21T03:53:28;28.30;;;6.32;;
51636;SDS011;37713;53.254;6.460;2024-02-21T03:55:55;29.67;;;6.70;;
51636;SDS011;37713;53.254;6.460;2024-02-21T03:58:21;26.85;;;6.72;;
51636;SDS011;37713;53.254;6.460;2024-02-21T04:00:47;31.90;;;6.82;;
51636;SDS011;37713;53.254;6.460;2024-02-21T04:03:13;31.67;;;7.07;;
51636;SDS011;37713;53.254;6.460;2024-02-21T04:05:39;30.83;;;6.93;;
51636;SDS011;37713;53.254;6.460;2024-02-21T04:08:05;33.03;;;6.82;;
51636;SDS011;37713;53.254;6.460;2024-02-21T04:10:31;39.38;;;7.35;;
51636;SDS011;37713;53.254;6.460;2024-02-21T04:12:57;32.03;;;6.97;;
51636;SDS011;37713;53.254;6.460;2024-02-21T04:15:23;31.48;;;7.50;;
51636;SDS011;37713;53.254;6.460;2024-02-21T04:17:48;30.45;;;7.25;;
51636;SDS011;37713;53.254;6.460;2024-02-21T04:20:16;26.50;;;6.75;;
51636;SDS011;37713;53.254;6.460;2024-02-21T04:22:45;32.60;;;7.68;;
51636;SDS011;37713;53.254;6.460;2024-02-21T04:25:11;34.05;;;7.30;;
51636;SDS011;37713;53.254;6.460;2024-02-21T04:27:38;28.92;;;6.85;;
51636;SDS011;37713;53.254;6.460;2024-02-21T04:30:04;34.17;;;8.30;;
51636;SDS011;37713;53.254;6.460;2024-02-21T04:32:31;31.52;;;6.40;;
51636;SDS011;37713;53.254;6.460;2024-02-21T04:34:57;25.10;;;6.50;;
51636;SDS011;37713;53.254;6.460;2024-02-21T04:37:23;25.77;;;6.57;;
51636;SDS011;37713;53.254;6.460;2024-02-21T04:39:49;30.85;;;6.85;;
51636;SDS011;37713;53.254;6.460;2024-02-21T04:42:16;29.45;;;6.63;;
51636;SDS011;37713;53.254;6.460;2024-02-21T04:44:42;29.33;;;6.88;;
51636;SDS011;37713;53.254;6.460;2024-02-21T04:47:08;23.42;;;5.97;;
51636;SDS011;37713;53.254;6.460;2024-02-21T04:49:34;25.55;;;5.88;;
51636;SDS011;37713;53.254;6.460;2024-02-21T04:52:00;25.85;;;5.97;;
51636;SDS011;37713;53.254;6.460;2024-02-21T04:54:26;31.20;;;6.13;;
51636;SDS011;37713;53.254;6.460;2024-02-21T04:56:52;24.98;;;6.18;;
51636;SDS011;37713;53.254;6.460;2024-02-21T04:59:18;31.15;;;6.13;;
51636;SDS011;37713;53.254;6.460;2024-02-21T05:01:44;28.05;;;5.25;;
51636;SDS011;37713;53.254;6.460;2024-02-21T05:04:09;30.15;;;6.65;;
51636;SDS011;37713;53.254;6.460;2024-02-21T05:06:42;26.83;;;5.55;;
51636;SDS011;37713;53.254;6.460;2024-02-21T05:09:08;32.10;;;6.82;;
51636;SDS011;37713;53.254;6.460;2024-02-21T05:11:34;31.27;;;5.93;;
51636;SDS011;37713;53.254;6.460;2024-02-21T05:14:01;33.85;;;6.30;;
51636;SDS011;37713;53.254;6.460;2024-02-21T05:16:27;25.85;;;6.00;;
51636;SDS011;37713;53.254;6.460;2024-02-21T05:18:53;28.35;;;6.10;;
51636;SDS011;37713;53.254;6.460;2024-02-21T05:21:19;29.83;;;6.20;;
51636;SDS011;37713;53.254;6.460;2024-02-21T05:23:45;33.97;;;6.95;;
51636;SDS011;37713;53.254;6.460;2024-02-21T05:26:11;35.25;;;6.03;;
51636;SDS011;37713;53.254;6.460;2024-02-21T05:28:36;31.27;;;5.70;;
51636;SDS011;37713;53.254;6.460;2024-02-21T05:31:03;26.98;;;6.00;;
51636;SDS011;37713;53.254;6.460;2024-02-21T05:33:28;28.08;;;6.72;;
51636;SDS011;37713;53.254;6.460;2024-02-21T05:35:54;24.25;;;5.68;;
51636;SDS011;37713;53.254;6.460;2024-02-21T05:38:20;36.55;;;6.30;;
51636;SDS011;37713;53.254;6.460;2024-02-21T05:40:46;29.02;;;6.88;;
51636;SDS011;37713;53.254;6.460;2024-02-21T05:43:13;26.58;;;6.05;;
51636;SDS011;37713;53.254;6.460;2024-02-21T05:45:39;38.05;;;6.72;;
51636;SDS011;37713;53.254;6.460;2024-02-21T05:48:06;24.13;;;6.10;;
51636;SDS011;37713;53.254;6.460;2024-02-21T05:50:32;32.38;;;6.90;;
51636;SDS011;37713;53.254;6.460;2024-02-21T05:52:58;34.53;;;6.78;;
51636;SDS011;37713;53.254;6.460;2024-02-21T05:55:24;32.42;;;7.45;;
51636;SDS011;37713;53.254;6.460;2024-02-21T05:57:53;35.45;;;6.75;;
51636;SDS011;37713;53.254;6.460;2024-02-21T06:00:19;29.92;;;6.43;;
51636;SDS011;37713;53.254;6.460;2024-02-21T06:02:45;26.42;;;6.32;;
51636;SDS011;37713;53.254;6.460;2024-02-21T06:05:11;28.38;;;6.40;;
51636;SDS011;37713;53.254;6.460;2024-02-21T06:07:36;24.45;;;6.72;;
51636;SDS011;37713;53.254;6.460;2024-02-21T06:10:03;32.25;;;6.80;;
51636;SDS011;37713;53.254;6.460;2024-02-21T06:12:30;30.85;;;6.93;;
51636;SDS011;37713;53.254;6.460;2024-02-21T06:14:55;28.17;;;6.75;;
51636;SDS011;37713;53.254;6.460;2024-02-21T06:17:21;25.10;;;6.72;;
51636;SDS011;37713;53.254;6.460;2024-02-21T06:19:47;25.50;;;7.03;;
51636;SDS011;37713;53.254;6.460;2024-02-21T06:22:13;31.50;;;7.25;;
51636;SDS011;37713;53.254;6.460;2024-02-21T06:24:39;30.98;;;7.22;;
51636;SDS011;37713;53.254;6.460;2024-02-21T06:27:05;29.40;;;6.63;;
51636;SDS011;37713;53.254;6.460;2024-02-21T06:29:31;29.98;;;6.97;;
51636;SDS011;37713;53.254;6.460;2024-02-21T06:31:58;35.60;;;7.15;;
51636;SDS011;37713;53.254;6.460;2024-02-21T06:34:24;33.33;;;6.88;;
51636;SDS011;37713;53.254;6.460;2024-02-21T06:36:50;28.15;;;7.03;;
51636;SDS011;37713;53.254;6.460;2024-02-21T06:39:16;37.35;;;6.97;;
51636;SDS011;37713;53.254;6.460;2024-02-21T06:41:42;33.95;;;7.55;;
51636;SDS011;37713;53.254;6.460;2024-02-21T06:44:08;32.78;;;8.15;;
51636;SDS011;37713;53.254;6.460;2024-02-21T06:46:33;32.40;;;7.90;;
51636;SDS011;37713;53.254;6.460;2024-02-21T06:49:00;36.55;;;8.13;;
51636;SDS011;37713;53.254;6.460;2024-02-21T06:51:27;32.70;;;9.38;;
51636;SDS011;37713;53.254;6.460;2024-02-21T06:53:53;30.40;;;7.97;;
51636;SDS011;37713;53.254;6.460;2024-02-21T06:56:19;34.63;;;8.20;;
51636;SDS011;37713;53.254;6.460;2024-02-21T06:58:45;32.20;;;8.73;;
51636;SDS011;37713;53.254;6.460;2024-02-21T07:01:11;28.77;;;8.27;;
51636;SDS011;37713;53.254;6.460;2024-02-21T07:03:37;29.35;;;8.20;;
51636;SDS011;37713;53.254;6.460;2024-02-21T07:06:03;25.80;;;8.05;;
51636;SDS011;37713;53.254;6.460;2024-02-21T07:08:29;22.90;;;8.50;;
51636;SDS011;37713;53.254;6.460;2024-02-21T07:10:55;26.08;;;8.63;;
51636;SDS011;37713;53.254;6.460;2024-02-21T07:13:20;28.13;;;7.97;;
51636;SDS011;37713;53.254;6.460;2024-02-21T07:15:48;28.73;;;8.25;;
51636;SDS011;37713;53.254;6.460;2024-02-21T07:18:14;28.05;;;8.27;;
51636;SDS011;37713;53.254;6.460;2024-02-21T07:20:39;31.15;;;9.30;;
51636;SDS011;37713;53.254;6.460;2024-02-21T07:23:06;37.55;;;10.25;;
51636;SDS011;37713;53.254;6.460;2024-02-21T07:25:33;39.80;;;12.32;;
51636;SDS011;37713;53.254;6.460;2024-02-21T07:27:59;40.38;;;13.65;;
51636;SDS011;37713;53.254;6.460;2024-02-21T07:30:24;35.85;;;11.48;;
51636;SDS011;37713;53.254;6.460;2024-02-21T07:32:50;45.88;;;13.52;;
51636;SDS011;37713;53.254;6.460;2024-02-21T07:35:17;45.25;;;13.10;;
51636;SDS011;37713;53.254;6.460;2024-02-21T07:37:43;51.03;;;14.30;;
51636;SDS011;37713;53.254;6.460;2024-02-21T07:40:12;53.38;;;14.80;;
51636;SDS011;37713;53.254;6.460;2024-02-21T07:45:06;49.05;;;14.88;;
51636;SDS011;37713;53.254;6.460;2024-02-21T07:47:33;52.08;;;15.82;;
51636;SDS011;37713;53.254;6.460;2024-02-21T07:49:59;64.30;;;15.77;;
51636;SDS011;37713;53.254;6.460;2024-02-21T07:52:26;54.35;;;14.75;;
51636;SDS011;37713;53.254;6.460;2024-02-21T07:54:52;53.45;;;15.98;;
51636;SDS011;37713;53.254;6.460;2024-02-21T07:57:17;52.90;;;15.77;;
51636;SDS011;37713;53.254;6.460;2024-02-21T07:59:43;44.80;;;14.95;;
51636;SDS011;37713;53.254;6.460;2024-02-21T08:02:09;46.92;;;13.57;;
51636;SDS011;37713;53.254;6.460;2024-02-21T08:04:35;41.63;;;12.60;;
51636;SDS011;37713;53.254;6.460;2024-02-21T08:07:02;42.67;;;11.63;;
51636;SDS011;37713;53.254;6.460;2024-02-21T08:09:29;37.58;;;11.50;;
51636;SDS011;37713;53.254;6.460;2024-02-21T08:11:55;40.42;;;10.68;;
51636;SDS011;37713;53.254;6.460;2024-02-21T08:14:21;38.70;;;9.43;;
51636;SDS011;37713;53.254;6.460;2024-02-21T08:16:47;31.35;;;8.73;;
51636;SDS011;37713;53.254;6.460;2024-02-21T08:19:13;31.77;;;7.78;;
51636;SDS011;37713;53.254;6.460;2024-02-21T08:21:39;21.02;;;6.57;;
51636;SDS011;37713;53.254;6.460;2024-02-21T08:24:05;29.05;;;6.72;;
51636;SDS011;37713;53.254;6.460;2024-02-21T08:26:31;30.55;;;7.60;;
51636;SDS011;37713;53.254;6.460;2024-02-21T08:28:57;27.27;;;6.75;;
51636;SDS011;37713;53.254;6.460;2024-02-21T08:31:25;23.33;;;5.93;;
51636;SDS011;37713;53.254;6.460;2024-02-21T08:33:59;28.45;;;6.68;;
51636;SDS011;37713;53.254;6.460;2024-02-21T08:36:35;24.67;;;6.70;;
51636;SDS011;37713;53.254;6.460;2024-02-21T08:39:02;20.88;;;6.20;;
51636;SDS011;37713;53.254;6.460;2024-02-21T08:41:33;23.23;;;6.97;;
51636;SDS011;37713;53.254;6.460;2024-02-21T08:43:59;21.40;;;7.55;;
51636;SDS011;37713;53.254;6.460;2024-02-21T08:46:25;22.52;;;7.07;;
51636;SDS011;37713;53.254;6.460;2024-02-21T08:48:52;24.02;;;7.75;;
51636;SDS011;37713;53.254;6.460;2024-02-21T08:51:18;23.17;;;7.30;;
51636;SDS011;37713;53.254;6.460;2024-02-21T08:53:48;25.05;;;7.43;;
51636;SDS011;37713;53.254;6.460;2024-02-21T08:56:14;20.92;;;6.95;;
51636;SDS011;37713;53.254;6.460;2024-02-21T08:58:41;27.20;;;7.57;;
51636;SDS011;37713;53.254;6.460;2024-02-21T09:01:07;22.35;;;7.70;;
51636;SDS011;37713;53.254;6.460;2024-02-21T09:06:04;30.08;;;9.13;;
51636;SDS011;37713;53.254;6.460;2024-02-21T09:08:30;23.23;;;9.27;;
51636;SDS011;37713;53.254;6.460;2024-02-21T09:10:56;28.23;;;9.35;;
51636;SDS011;37713;53.254;6.460;2024-02-21T09:13:22;28.85;;;10.48;;
51636;SDS011;37713;53.254;6.460;2024-02-21T09:15:49;28.60;;;12.48;;
51636;SDS011;37713;53.254;6.460;2024-02-21T09:18:15;33.60;;;12.63;;
51636;SDS011;37713;53.254;6.460;2024-02-21T09:20:42;28.23;;;13.05;;
51636;SDS011;37713;53.254;6.460;2024-02-21T09:23:08;28.70;;;14.15;;
51636;SDS011;37713;53.254;6.460;2024-02-21T09:25:34;30.23;;;14.10;;
51636;SDS011;37713;53.254;6.460;2024-02-21T09:28:04;31.23;;;14.85;;
51636;SDS011;37713;53.254;6.460;2024-02-21T09:30:31;31.33;;;15.30;;
51636;SDS011;37713;53.254;6.460;2024-02-21T09:32:57;34.28;;;16.77;;
51636;SDS011;37713;53.254;6.460;2024-02-21T09:35:27;35.10;;;16.35;;
51636;SDS011;37713;53.254;6.460;2024-02-21T09:37:53;35.75;;;18.30;;
51636;SDS011;37713;53.254;6.460;2024-02-21T09:40:20;36.03;;;17.38;;
51636;SDS011;37713;53.254;6.460;2024-02-21T09:42:46;35.25;;;17.77;;
51636;SDS011;37713;53.254;6.460;2024-02-21T09:50:52;37.13;;;17.90;;
51636;SDS011;37713;53.254;6.460;2024-02-21T09:53:20;32.38;;;17.85;;
51636;SDS011;37713;53.254;6.460;2024-02-21T09:55:49;32.65;;;16.92;;
51636;SDS011;37713;53.254;6.460;2024-02-21T09:58:16;29.35;;;18.02;;
51636;SDS011;37713;53.254;6.460;2024-02-21T10:00:42;33.85;;;18.10;;
51636;SDS011;37713;53.254;6.460;2024-02-21T10:03:08;33.95;;;18.20;;
51636;SDS011;37713;53.254;6.460;2024-02-21T10:05:34;33.63;;;17.80;;
51636;SDS011;37713;53.254;6.460;2024-02-21T10:08:01;35.83;;;17.33;;
51636;SDS011;37713;53.254;6.460;2024-02-21T10:10:27;33.20;;;17.50;;
51636;SDS011;37713;53.254;6.460;2024-02-21T10:12:55;36.13;;;17.80;;
51636;SDS011;37713;53.254;6.460;2024-02-21T10:15:23;31.42;;;15.88;;
51636;SDS011;37713;53.254;6.460;2024-02-21T10:17:57;29.40;;;16.95;;
51636;SDS011;37713;53.254;6.460;2024-02-21T10:20:24;28.30;;;15.60;;
51636;SDS011;37713;53.254;6.460;2024-02-21T10:22:59;27.38;;;15.80;;
51636;SDS011;37713;53.254;6.460;2024-02-21T10:25:33;33.50;;;17.45;;
51636;SDS011;37713;53.254;6.460;2024-02-21T10:28:13;31.48;;;16.77;;
51636;SDS011;37713;53.254;6.460;2024-02-21T10:30:51;34.13;;;16.17;;
51636;SDS011;37713;53.254;6.460;2024-02-21T10:33:17;33.17;;;16.33;;
51636;SDS011;37713;53.254;6.460;2024-02-21T10:35:46;31.55;;;16.73;;
51636;SDS011;37713;53.254;6.460;2024-02-21T10:38:12;31.48;;;17.02;;
51636;SDS011;37713;53.254;6.460;2024-02-21T10:40:38;30.63;;;16.63;;
51636;SDS011;37713;53.254;6.460;2024-02-21T10:43:04;39.08;;;22.15;;
51636;SDS011;37713;53.254;6.460;2024-02-21T10:45:35;32.05;;;17.60;;
51636;SDS011;37713;53.254;6.460;2024-02-21T10:50:36;25.05;;;16.58;;
51636;SDS011;37713;53.254;6.460;2024-02-21T10:53:44;31.88;;;17.85;;
51636;SDS011;37713;53.254;6.460;2024-02-21T10:56:26;29.52;;;17.67;;
51636;SDS011;37713;53.254;6.460;2024-02-21T10:59:05;30.90;;;17.23;;
51636;SDS011;37713;53.254;6.460;2024-02-21T11:01:32;31.05;;;18.35;;
51636;SDS011;37713;53.254;6.460;2024-02-21T11:04:07;28.42;;;18.73;;
51636;SDS011;37713;53.254;6.460;2024-02-21T11:06:37;36.00;;;18.80;;
51636;SDS011;37713;53.254;6.460;2024-02-21T11:09:08;29.98;;;19.08;;
51636;SDS011;37713;53.254;6.460;2024-02-21T11:14:18;33.50;;;20.35;;
51636;SDS011;37713;53.254;6.460;2024-02-21T11:16:47;33.95;;;19.60;;
51636;SDS011;37713;53.254;6.460;2024-02-21T11:19:20;31.42;;;19.23;;
51636;SDS011;37713;53.254;6.460;2024-02-21T11:21:47;35.33;;;19.73;;
51636;SDS011;37713;53.254;6.460;2024-02-21T11:24:14;31.95;;;20.33;;
51636;SDS011;37713;53.254;6.460;2024-02-21T11:26:51;31.42;;;19.58;;
51636;SDS011;37713;53.254;6.460;2024-02-21T11:29:23;35.55;;;19.25;;
51636;SDS011;37713;53.254;6.460;2024-02-21T11:31:50;32.10;;;19.33;;
51636;SDS011;37713;53.254;6.460;2024-02-21T11:34:19;32.58;;;19.27;;
51636;SDS011;37713;53.254;6.460;2024-02-21T11:39:19;29.52;;;19.23;;
51636;SDS011;37713;53.254;6.460;2024-02-21T11:42:06;30.73;;;18.38;;
51636;SDS011;37713;53.254;6.460;2024-02-21T11:44:34;30.08;;;17.90;;
51636;SDS011;37713;53.254;6.460;2024-02-21T11:47:00;29.00;;;17.58;;
51636;SDS011;37713;53.254;6.460;2024-02-21T11:49:28;29.88;;;17.80;;
51636;SDS011;37713;53.254;6.460;2024-02-21T11:52:01;25.88;;;16.92;;
51636;SDS011;37713;53.254;6.460;2024-02-21T11:54:32;25.67;;;15.80;;
51636;SDS011;37713;53.254;6.460;2024-02-21T11:56:59;30.00;;;16.80;;
51636;SDS011;37713;53.254;6.460;2024-02-21T11:59:26;28.83;;;16.08;;
51636;SDS011;37713;53.254;6.460;2024-02-21T12:01:52;25.48;;;16.10;;
51636;SDS011;37713;53.254;6.460;2024-02-21T12:04:18;25.83;;;15.30;;
51636;SDS011;37713;53.254;6.460;2024-02-21T12:06:45;27.00;;;14.77;;
51636;SDS011;37713;53.254;6.460;2024-02-21T12:09:17;27.40;;;15.68;;
51636;SDS011;37713;53.254;6.460;2024-02-21T12:11:44;28.50;;;14.70;;
51636;SDS011;37713;53.254;6.460;2024-02-21T12:14:15;25.67;;;15.40;;
51636;SDS011;37713;53.254;6.460;2024-02-21T12:16:42;22.45;;;13.55;;
51636;SDS011;37713;53.254;6.460;2024-02-21T12:19:12;23.38;;;13.25;;
51636;SDS011;37713;53.254;6.460;2024-02-21T12:21:38;23.50;;;13.40;;
51636;SDS011;37713;53.254;6.460;2024-02-21T12:24:15;22.95;;;12.73;;
51636;SDS011;37713;53.254;6.460;2024-02-21T12:26:46;22.15;;;13.40;;
51636;SDS011;37713;53.254;6.460;2024-02-21T12:29:12;23.02;;;12.43;;
51636;SDS011;37713;53.254;6.460;2024-02-21T12:31:38;20.33;;;12.07;;
51636;SDS011;37713;53.254;6.460;2024-02-21T12:34:04;19.75;;;11.68;;
51636;SDS011;37713;53.254;6.460;2024-02-21T12:36:31;19.17;;;11.05;;
51636;SDS011;37713;53.254;6.460;2024-02-21T12:38:57;20.77;;;11.20;;
51636;SDS011;37713;53.254;6.460;2024-02-21T12:41:23;19.80;;;11.40;;
51636;SDS011;37713;53.254;6.460;2024-02-21T12:43:50;21.27;;;11.18;;
51636;SDS011;37713;53.254;6.460;2024-02-21T12:46:16;21.27;;;11.57;;
51636;SDS011;37713;53.254;6.460;2024-02-21T12:48:42;22.27;;;11.18;;
51636;SDS011;37713;53.254;6.460;2024-02-21T12:51:08;18.05;;;10.43;;
51636;SDS011;37713;53.254;6.460;2024-02-21T12:53:33;21.25;;;11.75;;
51636;SDS011;37713;53.254;6.460;2024-02-21T12:55:59;19.65;;;11.02;;
51636;SDS011;37713;53.254;6.460;2024-02-21T12:58:25;22.70;;;11.20;;
51636;SDS011;37713;53.254;6.460;2024-02-21T13:00:51;20.13;;;10.95;;
51636;SDS011;37713;53.254;6.460;2024-02-21T13:03:18;19.17;;;10.27;;
51636;SDS011;37713;53.254;6.460;2024-02-21T13:05:44;19.73;;;10.15;;
51636;SDS011;37713;53.254;6.460;2024-02-21T13:08:09;20.90;;;10.38;;
51636;SDS011;37713;53.254;6.460;2024-02-21T13:10:37;16.30;;;9.45;;
51636;SDS011;37713;53.254;6.460;2024-02-21T13:13:03;17.95;;;9.35;;
51636;SDS011;37713;53.254;6.460;2024-02-21T13:15:29;15.20;;;9.50;;
51636;SDS011;37713;53.254;6.460;2024-02-21T13:17:58;17.60;;;9.38;;
51636;SDS011;37713;53.254;6.460;2024-02-21T13:20:25;18.20;;;9.32;;
51636;SDS011;37713;53.254;6.460;2024-02-21T13:22:51;15.07;;;9.15;;
51636;SDS011;37713;53.254;6.460;2024-02-21T13:25:17;17.33;;;8.82;;
51636;SDS011;37713;53.254;6.460;2024-02-21T13:27:46;14.30;;;8.27;;
51636;SDS011;37713;53.254;6.460;2024-02-21T13:30:12;12.55;;;8.13;;
51636;SDS011;37713;53.254;6.460;2024-02-21T13:32:41;14.68;;;8.25;;
51636;SDS011;37713;53.254;6.460;2024-02-21T13:35:07;12.95;;;7.63;;
51636;SDS011;37713;53.254;6.460;2024-02-21T13:37:34;15.20;;;7.80;;
51636;SDS011;37713;53.254;6.460;2024-02-21T13:40:00;13.05;;;7.57;;
51636;SDS011;37713;53.254;6.460;2024-02-21T13:42:26;14.07;;;7.78;;
51636;SDS011;37713;53.254;6.460;2024-02-21T13:44:53;14.43;;;7.90;;
51636;SDS011;37713;53.254;6.460;2024-02-21T13:47:19;16.98;;;7.65;;
51636;SDS011;37713;53.254;6.460;2024-02-21T13:49:46;17.42;;;7.75;;
51636;SDS011;37713;53.254;6.460;2024-02-21T13:52:13;10.95;;;7.10;;
51636;SDS011;37713;53.254;6.460;2024-02-21T13:54:39;14.15;;;6.85;;
51636;SDS011;37713;53.254;6.460;2024-02-21T13:57:05;13.32;;;6.75;;
51636;SDS011;37713;53.254;6.460;2024-02-21T13:59:31;14.00;;;7.30;;
51636;SDS011;37713;53.254;6.460;2024-02-21T14:01:58;11.98;;;6.75;;
51636;SDS011;37713;53.254;6.460;2024-02-21T14:04:24;11.50;;;6.57;;
51636;SDS011;37713;53.254;6.460;2024-02-21T14:06:50;11.00;;;6.90;;
51636;SDS011;37713;53.254;6.460;2024-02-21T14:09:16;11.93;;;7.00;;
51636;SDS011;37713;53.254;6.460;2024-02-21T14:11:41;13.60;;;7.03;;
51636;SDS011;37713;53.254;6.460;2024-02-21T14:14:07;11.43;;;6.75;;
51636;SDS011;37713;53.254;6.460;2024-02-21T14:16:33;13.73;;;6.50;;
51636;SDS011;37713;53.254;6.460;2024-02-21T14:18:59;10.93;;;6.78;;
51636;SDS011;37713;53.254;6.460;2024-02-21T14:21:25;11.73;;;6.30;;
51636;SDS011;37713;53.254;6.460;2024-02-21T14:23:51;13.05;;;6.53;;
51636;SDS011;37713;53.254;6.460;2024-02-21T14:26:18;14.48;;;6.90;;
51636;SDS011;37713;53.254;6.460;2024-02-21T14:28:43;11.35;;;6.68;;
51636;SDS011;37713;53.254;6.460;2024-02-21T14:31:11;11.00;;;6.95;;
51636;SDS011;37713;53.254;6.460;2024-02-21T14:33:37;11.75;;;6.95;;
51636;SDS011;37713;53.254;6.460;2024-02-21T14:36:03;12.85;;;6.82;;
51636;SDS011;37713;53.254;6.460;2024-02-21T14:38:29;10.77;;;6.72;;
51636;SDS011;37713;53.254;6.460;2024-02-21T14:40:55;12.45;;;6.72;;
51636;SDS011;37713;53.254;6.460;2024-02-21T14:43:21;12.73;;;7.43;;
51636;SDS011;37713;53.254;6.460;2024-02-21T14:45:47;11.70;;;7.05;;
51636;SDS011;37713;53.254;6.460;2024-02-21T14:48:13;15.30;;;7.65;;